createdAt,value
2023-11-12T00:00:18.822Z,99031.79
2023-11-12T00:03:06.858Z,99032.77
2023-11-12T00:05:35.420Z,99031.38
2023-11-12T00:08:03.301Z,99028.41
2023-11-12T00:10:32.382Z,99031.89
2023-11-12T00:13:00.621Z,99031.36
2023-11-12T00:15:28.666Z,99040.73
2023-11-12T00:17:56.526Z,99045.81
2023-11-12T00:20:26.732Z,99051.08
2023-11-12T00:22:55.790Z,99056.85
2023-11-12T00:25:23.761Z,99060.44
2023-11-12T00:27:51.785Z,99060.69
2023-11-12T00:30:19.794Z,99057.41
2023-11-12T00:32:47.779Z,99060.55
2023-11-12T00:35:16.021Z,99061.42
2023-11-12T00:37:44.100Z,99068.73
2023-11-12T00:40:15.392Z,99073.44
2023-11-12T00:42:43.492Z,99074.17
2023-11-12T00:45:11.520Z,99073.59
2023-11-12T00:47:39.431Z,99075.87
2023-11-12T00:50:09.865Z,99079.94
2023-11-12T00:52:37.902Z,99076.70
2023-11-12T00:55:07.832Z,99079.61
2023-11-12T00:57:39.033Z,99083.79
2023-11-12T01:00:08.700Z,99082.11
2023-11-12T01:02:36.875Z,99077.23
2023-11-12T01:05:06.283Z,99075.33
2023-11-12T01:07:34.325Z,99079.18
2023-11-12T01:10:02.256Z,99081.44
2023-11-12T01:12:30.392Z,99085.27
2023-11-12T01:14:58.370Z,99084.59
2023-11-12T01:17:26.474Z,99084.33
2023-11-12T01:19:54.644Z,99086.60
2023-11-12T01:22:22.635Z,99086.38
2023-11-12T01:24:50.722Z,99088.30
2023-11-12T01:27:18.529Z,99093.02
2023-11-12T01:29:46.779Z,99089.45
2023-11-12T01:32:15.237Z,99093.27
2023-11-12T01:34:43.313Z,99097.17
2023-11-12T01:37:11.235Z,99096.30
2023-11-12T01:39:39.275Z,99096.83
2023-11-12T01:42:13.076Z,99102.54
2023-11-12T01:44:43.418Z,99103.04
2023-11-12T01:47:14.028Z,99106.32
2023-11-12T01:49:42.277Z,99109.11
2023-11-12T01:52:12.640Z,99108.27
2023-11-12T01:54:41.954Z,99112.44
2023-11-12T01:57:11.289Z,99118.79
2023-11-12T01:59:40.137Z,99119.84
2023-11-12T02:02:08.860Z,99120.52
2023-11-12T02:04:37.922Z,99124.11
2023-11-12T02:07:06.345Z,99125.12
2023-11-12T02:09:34.580Z,99129.11
2023-11-12T02:12:02.996Z,99130.73
2023-11-12T02:14:32.798Z,99132.48
2023-11-12T02:17:01.056Z,99132.57
2023-11-12T02:19:30.953Z,99136.77
2023-11-12T02:21:59.477Z,99135.94
2023-11-12T02:24:27.426Z,99138.39
2023-11-12T02:26:55.660Z,99135.08
2023-11-12T02:29:23.626Z,99142.92
2023-11-12T02:31:51.609Z,99149.47
2023-11-12T02:34:19.617Z,99150.19
2023-11-12T02:36:47.628Z,99153.92
2023-11-12T02:39:15.952Z,99154.79
2023-11-12T02:41:45.669Z,99158.03
2023-11-12T02:44:16.045Z,99159.42
2023-11-12T02:46:44.033Z,99169.30
2023-11-12T02:49:24.727Z,99169.85
2023-11-12T02:51:52.633Z,99172.28
2023-11-12T02:54:20.589Z,99173.21
2023-11-12T02:56:48.584Z,99175.11
2023-11-12T02:59:16.474Z,99180.61
2023-11-12T03:01:44.896Z,99179.23
2023-11-12T03:04:12.952Z,99181.64
2023-11-12T03:06:41.617Z,99183.39
2023-11-12T03:09:10.829Z,99188.23
2023-11-12T03:11:39.187Z,99191.73
2023-11-12T03:14:09.578Z,99193.21
2023-11-12T03:16:37.641Z,99199.59
2023-11-12T03:19:05.636Z,99201.67
2023-11-12T03:21:34.160Z,99200.33
2023-11-12T03:24:02.403Z,99202.64
2023-11-12T03:26:30.233Z,99203.07
2023-11-12T03:28:58.136Z,99206.77
2023-11-12T03:31:27.203Z,99207.98
2023-11-12T03:33:55.058Z,99208.91
2023-11-12T03:36:23.103Z,99213.77
2023-11-12T03:38:50.928Z,99220.87
2023-11-12T03:41:18.848Z,99223.11
2023-11-12T03:43:47.296Z,99225.89
2023-11-12T03:46:15.410Z,99228.50
2023-11-12T03:48:44.133Z,99226.76
2023-11-12T03:51:12.214Z,99226.13
2023-11-12T03:53:40.699Z,99227.50
2023-11-12T03:56:08.841Z,99230.60
2023-11-12T03:58:36.995Z,99231.77
2023-11-12T04:01:05.382Z,99231.73
2023-11-12T04:03:33.440Z,99233.59
2023-11-12T04:06:02.038Z,99233.55
2023-11-12T04:08:29.900Z,99238.30
2023-11-12T04:10:57.967Z,99242.04
2023-11-12T04:13:25.860Z,99247.05
2023-11-12T04:15:54.085Z,99247.09
2023-11-12T04:18:22.133Z,99247.52
2023-11-12T04:20:50.087Z,99248.73
2023-11-12T04:23:18.165Z,99252.20
2023-11-12T04:25:49.139Z,99256.69
2023-11-12T04:28:17.014Z,99262.05
2023-11-12T04:30:45.013Z,99265.05
2023-11-12T04:33:13.017Z,99264.51
2023-11-12T04:35:40.858Z,99265.90
2023-11-12T04:38:09.070Z,99271.09
2023-11-12T04:40:36.850Z,99274.92
2023-11-12T04:43:04.807Z,99278.42
2023-11-12T04:45:32.634Z,99280.70
2023-11-12T04:48:00.580Z,99282.70
2023-11-12T04:50:29.941Z,99285.15
2023-11-12T04:52:57.935Z,99288.08
2023-11-12T04:55:25.822Z,99287.20
2023-11-12T04:57:54.226Z,99290.33
2023-11-12T05:00:23.581Z,99292.41
2023-11-12T05:02:52.823Z,99297.43
2023-11-12T05:05:20.612Z,99305.21
2023-11-12T05:07:50.205Z,99309.41
2023-11-12T05:10:18.056Z,99314.00
2023-11-12T05:12:47.025Z,99317.98
2023-11-12T05:15:15.173Z,99324.19
2023-11-12T05:17:43.083Z,99327.84
2023-11-12T05:20:11.562Z,99330.80
2023-11-12T05:22:39.490Z,99338.65
2023-11-12T05:25:07.705Z,99346.45
2023-11-12T05:27:36.085Z,99351.48
2023-11-12T05:30:04.603Z,99360.18
2023-11-12T05:32:32.521Z,99364.86
2023-11-12T05:35:00.547Z,99370.06
2023-11-12T05:37:28.863Z,99374.95
2023-11-12T05:39:56.741Z,99380.35
2023-11-12T05:42:24.918Z,99384.06
2023-11-12T05:44:53.454Z,99391.52
2023-11-12T05:47:21.356Z,99394.69
2023-11-12T05:49:49.235Z,99399.76
2023-11-12T05:52:17.403Z,99403.11
2023-11-12T05:54:45.415Z,99407.63
2023-11-12T05:57:13.435Z,99410.73
2023-11-12T05:59:41.324Z,99412.15
2023-11-12T06:02:09.734Z,99416.35
2023-11-12T06:04:38.018Z,99422.76
2023-11-12T06:07:06.007Z,99424.63
2023-11-12T06:09:34.011Z,99432.15
2023-11-12T06:12:06.277Z,99437.17
2023-11-12T06:14:36.785Z,99445.22
2023-11-12T06:17:05.719Z,99449.78
2023-11-12T06:19:34.085Z,99454.58
2023-11-12T06:22:02.715Z,99456.14
2023-11-12T06:24:31.057Z,99456.78
2023-11-12T06:26:58.999Z,99461.21
2023-11-12T06:29:26.984Z,99462.72
2023-11-12T06:31:54.908Z,99467.00
2023-11-12T06:34:23.175Z,99471.34
2023-11-12T06:36:51.071Z,99474.92
2023-11-12T06:39:19.024Z,99479.66
2023-11-12T06:41:46.956Z,99483.30
2023-11-12T06:44:14.975Z,99488.82
2023-11-12T06:46:46.461Z,99494.35
2023-11-12T06:49:14.951Z,99498.27
2023-11-12T06:51:43.640Z,99499.52
2023-11-12T06:54:11.986Z,99500.00
2023-11-12T06:56:39.885Z,99505.17
2023-11-12T06:59:07.896Z,99506.38
2023-11-12T07:01:38.748Z,99510.55
2023-11-12T07:04:08.040Z,99513.48
2023-11-12T07:06:36.264Z,99514.88
2023-11-12T07:09:05.410Z,99516.44
2023-11-12T07:11:33.226Z,99520.36
2023-11-12T07:14:01.559Z,99522.42
2023-11-12T07:16:29.855Z,99526.86
2023-11-12T07:18:58.371Z,99531.80
2023-11-12T07:21:31.501Z,99536.73
2023-11-12T07:24:00.670Z,99541.02
2023-11-12T07:26:28.925Z,99542.56
2023-11-12T07:28:56.924Z,99544.61
2023-11-12T07:31:25.786Z,99545.42
2023-11-12T07:33:54.289Z,99548.66
2023-11-12T07:36:22.960Z,99552.70
2023-11-12T07:38:51.798Z,99560.05
2023-11-12T07:41:20.817Z,99561.04
2023-11-12T07:43:48.842Z,99563.02
2023-11-12T07:46:17.568Z,99567.45
2023-11-12T07:48:45.692Z,99570.10
2023-11-12T07:51:13.886Z,99572.55
2023-11-12T07:53:41.722Z,99575.16
2023-11-12T07:56:12.733Z,99575.52
2023-11-12T07:58:40.548Z,99575.73
2023-11-12T08:01:08.554Z,99576.70
2023-11-12T08:03:36.630Z,99580.05
2023-11-12T08:06:04.844Z,99582.77
2023-11-12T08:08:32.689Z,99584.39
2023-11-12T08:11:03.603Z,99591.33
2023-11-12T08:13:31.535Z,99595.11
2023-11-12T08:15:59.651Z,99593.71
2023-11-12T08:18:27.659Z,99597.09
2023-11-12T08:20:56.240Z,99598.06
2023-11-12T08:23:24.395Z,99599.27
2023-11-12T08:25:52.253Z,99601.83
2023-11-12T08:28:23.497Z,99610.23
2023-11-12T08:30:51.974Z,99615.42
2023-11-12T08:33:20.138Z,99617.05
2023-11-12T08:35:48.083Z,99619.77
2023-11-12T08:38:16.131Z,99619.86
2023-11-12T08:40:45.933Z,99620.33
2023-11-12T08:43:15.953Z,99625.64
2023-11-12T08:45:44.161Z,99632.48
2023-11-12T08:48:12.359Z,99637.08
2023-11-12T08:50:41.029Z,99641.21
2023-11-12T08:53:08.926Z,99643.52
2023-11-12T08:55:36.904Z,99643.80
2023-11-12T08:58:04.826Z,99644.21
2023-11-12T09:00:33.506Z,99651.02
2023-11-12T09:03:01.561Z,99656.52
2023-11-12T09:05:32.841Z,99660.67
2023-11-12T09:08:02.648Z,99667.91
2023-11-12T09:10:30.685Z,99669.95
2023-11-12T09:12:58.863Z,99669.02
2023-11-12T09:15:26.810Z,99671.52
2023-11-12T09:17:55.640Z,99673.17
2023-11-12T09:20:23.937Z,99673.27
2023-11-12T09:22:51.923Z,99677.33
2023-11-12T09:25:20.005Z,99681.09
2023-11-12T09:27:47.845Z,99682.28
2023-11-12T09:30:16.048Z,99681.95
2023-11-12T09:32:44.188Z,99684.66
2023-11-12T09:35:12.457Z,99682.48
2023-11-12T09:37:40.377Z,99682.90
2023-11-12T09:40:09.726Z,99684.59
2023-11-12T09:42:53.246Z,99683.64
2023-11-12T09:45:21.388Z,99682.60
2023-11-12T09:47:55.616Z,99686.52
2023-11-12T09:50:25.472Z,99683.21
2023-11-12T09:52:54.774Z,99685.98
2023-11-12T09:55:23.062Z,99682.88
2023-11-12T09:57:53.023Z,99685.83
2023-11-12T10:00:21.433Z,99683.27
2023-11-12T10:02:50.268Z,99681.20
2023-11-12T10:05:18.460Z,99680.67
2023-11-12T10:07:47.576Z,99677.52
2023-11-12T10:10:27.714Z,99676.61
2023-11-12T10:12:56.012Z,99679.05
2023-11-12T10:15:29.372Z,99680.73
2023-11-12T10:18:01.101Z,99678.72
2023-11-12T10:20:41.424Z,99679.61
2023-11-12T10:23:32.643Z,99679.73
2023-11-12T10:26:03.453Z,99677.45
2023-11-12T10:28:35.698Z,99676.70
2023-11-12T10:31:04.335Z,99678.93
2023-11-12T10:33:32.642Z,99682.63
2023-11-12T10:36:09.112Z,99683.88
2023-11-12T10:38:48.969Z,99686.13
2023-11-12T10:41:17.300Z,99687.02
2023-11-12T10:43:58.541Z,99692.50
2023-11-12T10:46:26.996Z,99695.73
2023-11-12T10:48:57.116Z,99693.67
2023-11-12T10:51:27.181Z,99693.50
2023-11-12T10:54:00.135Z,99695.24
2023-11-12T10:56:28.507Z,99697.14
2023-11-12T10:58:57.664Z,99696.93
2023-11-12T11:01:27.303Z,99696.91
2023-11-12T11:03:56.798Z,99702.73
2023-11-12T11:06:26.055Z,99704.78
2023-11-12T11:08:54.774Z,99706.11
2023-11-12T11:11:23.582Z,99704.17
2023-11-12T11:13:51.474Z,99704.17
2023-11-12T11:16:47.436Z,99709.42
2023-11-12T11:19:15.901Z,99714.02
2023-11-12T11:22:22.392Z,99711.79
2023-11-12T11:24:50.765Z,99712.96
2023-11-12T11:27:20.753Z,99717.81
2023-11-12T11:30:07.709Z,99719.28
2023-11-12T11:32:37.052Z,99723.52
2023-11-12T11:35:18.571Z,99728.41
2023-11-12T11:38:08.952Z,99732.12
2023-11-12T11:40:38.407Z,99734.12
2023-11-12T11:43:24.802Z,99732.85
2023-11-12T11:46:12.946Z,99738.15
2023-11-12T11:48:44.276Z,99740.88
2023-11-12T11:51:35.054Z,99741.01
2023-11-12T11:54:07.447Z,99741.25
2023-11-12T11:56:35.477Z,99742.71
2023-11-12T11:59:04.178Z,99741.23
2023-11-12T12:01:45.416Z,99739.10
2023-11-12T12:04:15.149Z,99739.21
2023-11-12T12:06:48.421Z,99741.02
2023-11-12T12:09:20.331Z,99741.67
2023-11-12T12:11:52.990Z,99738.08
2023-11-12T12:14:23.072Z,99740.21
2023-11-12T12:16:51.713Z,99735.98
2023-11-12T12:19:23.405Z,99739.73
2023-11-12T12:21:53.549Z,99737.95
2023-11-12T12:24:22.698Z,99738.80
2023-11-12T12:26:51.547Z,99734.79
2023-11-12T12:29:24.519Z,99735.98
2023-11-12T12:31:55.818Z,99731.12
2023-11-12T12:34:26.310Z,99733.42
2023-11-12T12:37:13.715Z,99732.25
2023-11-12T12:40:02.502Z,99734.20
2023-11-12T12:42:32.127Z,99738.09
2023-11-12T12:45:00.206Z,99736.21
2023-11-12T12:47:36.927Z,99740.23
2023-11-12T12:50:33.906Z,99742.85
2023-11-12T12:53:16.338Z,99744.65
2023-11-12T12:55:45.616Z,99745.98
2023-11-12T12:58:13.857Z,99745.69
2023-11-12T13:00:44.561Z,99746.55
2023-11-12T13:03:28.228Z,99749.14
2023-11-12T13:05:58.872Z,99751.08
2023-11-12T13:08:28.978Z,99750.15
2023-11-12T13:10:57.022Z,99753.23
2023-11-12T13:13:26.693Z,99753.54
2023-11-12T13:15:55.250Z,99754.44
2023-11-12T13:18:25.035Z,99759.75
2023-11-12T13:20:52.965Z,99760.23
2023-11-12T13:23:21.426Z,99760.24
2023-11-12T13:25:51.247Z,99760.60
2023-11-12T13:28:19.296Z,99761.59
2023-11-12T13:30:48.863Z,99766.10
2023-11-12T13:33:17.508Z,99768.11
2023-11-12T13:35:46.433Z,99768.58
2023-11-12T13:38:14.555Z,99767.74
2023-11-12T13:40:42.503Z,99768.78
2023-11-12T13:43:10.999Z,99770.75
2023-11-12T13:45:40.171Z,99772.19
2023-11-12T13:48:10.190Z,99775.27
2023-11-12T13:50:39.266Z,99775.21
2023-11-12T13:53:12.974Z,99778.98
2023-11-12T13:55:42.775Z,99780.40
2023-11-12T13:58:12.809Z,99783.15
2023-11-12T14:00:43.205Z,99786.54
2023-11-12T14:03:12.022Z,99790.80
2023-11-12T14:05:41.257Z,99794.23
2023-11-12T14:08:13.017Z,99799.59
2023-11-12T14:10:41.775Z,99802.41
2023-11-12T14:13:11.087Z,99806.11
2023-11-12T14:15:40.750Z,99809.17
2023-11-12T14:18:09.257Z,99812.45
2023-11-12T14:20:37.600Z,99814.84
2023-11-12T14:23:07.578Z,99813.88
2023-11-12T14:25:35.804Z,99816.94
2023-11-12T14:28:04.904Z,99820.81
2023-11-12T14:30:38.833Z,99825.01
2023-11-12T14:33:08.341Z,99826.32
2023-11-12T14:35:36.250Z,99823.22
2023-11-12T14:38:04.279Z,99824.67
2023-11-12T14:40:32.225Z,99827.70
2023-11-12T14:43:01.324Z,99826.11
2023-11-12T14:45:31.379Z,99832.36
2023-11-12T14:48:01.350Z,99834.59
2023-11-12T14:50:31.190Z,99832.67
2023-11-12T14:52:59.419Z,99834.20
2023-11-12T14:55:29.034Z,99837.07
2023-11-12T14:57:58.353Z,99840.81
2023-11-12T15:00:31.042Z,99844.36
2023-11-12T15:03:01.539Z,99848.77
2023-11-12T15:05:29.963Z,99848.87
2023-11-12T15:07:58.247Z,99851.70
2023-11-12T15:10:26.331Z,99858.34
2023-11-12T15:12:54.377Z,99865.02
2023-11-12T15:15:22.997Z,99866.49
2023-11-12T15:17:54.613Z,99868.34
2023-11-12T15:20:23.374Z,99872.77
2023-11-12T15:22:52.430Z,99874.13
2023-11-12T15:25:21.317Z,99879.45
2023-11-12T15:27:50.346Z,99879.58
2023-11-12T15:30:20.750Z,99885.23
2023-11-12T15:32:50.297Z,99888.83
2023-11-12T15:35:19.744Z,99892.15
2023-11-12T15:37:48.167Z,99895.46
2023-11-12T15:40:20.366Z,99895.63
2023-11-12T15:42:55.549Z,99897.49
2023-11-12T15:45:26.915Z,99901.56
2023-11-12T15:47:55.971Z,99908.77
2023-11-12T15:50:27.070Z,99908.71
2023-11-12T15:52:55.308Z,99908.10
2023-11-12T15:55:23.514Z,99911.41
2023-11-12T15:57:51.359Z,99911.18
2023-11-12T16:00:19.764Z,99911.48
2023-11-12T16:02:51.284Z,99914.19
2023-11-12T16:05:21.243Z,99915.39
2023-11-12T16:07:49.758Z,99915.42
2023-11-12T16:10:17.704Z,99915.62
2023-11-12T16:12:45.785Z,99917.77
2023-11-12T16:15:16.832Z,99921.67
2023-11-12T16:17:47.133Z,99924.38
2023-11-12T16:20:16.587Z,99924.16
2023-11-12T16:22:48.006Z,99923.73
2023-11-12T16:25:17.938Z,99928.34
2023-11-12T16:27:46.249Z,99928.80
2023-11-12T16:30:14.738Z,99927.85
2023-11-12T16:32:43.173Z,99929.69
2023-11-12T16:35:12.375Z,99931.68
2023-11-12T16:37:49.889Z,99932.66
2023-11-12T16:40:20.016Z,99933.44
2023-11-12T16:42:49.690Z,99933.14
2023-11-12T16:45:18.674Z,99937.59
2023-11-12T16:47:47.517Z,99942.64
2023-11-12T16:50:17.093Z,99943.21
2023-11-12T16:52:45.228Z,99947.63
2023-11-12T16:55:13.598Z,99946.65
2023-11-12T16:57:44.302Z,99951.75
2023-11-12T17:00:13.540Z,99951.00
2023-11-12T17:02:43.356Z,99951.21
2023-11-12T17:05:13.198Z,99948.70
2023-11-12T17:07:42.516Z,99949.67
2023-11-12T17:10:10.869Z,99948.21
2023-11-12T17:12:39.230Z,99954.15
2023-11-12T17:15:10.161Z,99953.02
2023-11-12T17:17:38.966Z,99956.55
2023-11-12T17:20:07.437Z,99958.04
2023-11-12T17:22:35.428Z,99960.21
2023-11-12T17:25:04.220Z,99963.41
2023-11-12T17:27:32.320Z,99963.86
2023-11-12T17:30:02.294Z,99965.14
2023-11-12T17:32:30.148Z,99965.61
2023-11-12T17:34:58.224Z,99969.52
2023-11-12T17:37:27.209Z,99974.27
2023-11-12T17:39:59.320Z,99970.91
2023-11-12T17:42:29.149Z,99975.86
2023-11-12T17:44:58.645Z,99975.07
2023-11-12T17:47:27.430Z,99977.26
2023-11-12T17:50:00.704Z,99978.57
2023-11-12T17:52:35.808Z,99977.54
2023-11-12T17:55:04.042Z,99977.42
2023-11-12T17:57:36.239Z,99978.52
2023-11-12T18:00:11.842Z,99980.15
2023-11-12T18:02:40.844Z,99979.15
2023-11-12T18:05:10.054Z,99979.52
2023-11-12T18:07:42.320Z,99984.57
2023-11-12T18:10:12.757Z,99989.46
2023-11-12T18:12:42.841Z,99990.38
2023-11-12T18:15:14.972Z,99992.21
2023-11-12T18:17:43.858Z,99993.67
2023-11-12T18:20:15.417Z,99999.95
2023-11-12T18:22:44.207Z,99998.82
2023-11-12T18:25:12.764Z,99996.67
2023-11-12T18:27:42.736Z,99997.59
2023-11-12T18:30:12.803Z,99996.11
2023-11-12T18:32:48.439Z,99999.96
2023-11-12T18:35:18.520Z,100000.38
2023-11-12T18:37:48.597Z,100002.18
2023-11-12T18:40:21.812Z,100005.85
2023-11-12T18:42:52.317Z,100006.91
2023-11-12T18:45:23.891Z,100010.96
2023-11-12T18:47:53.904Z,100013.82
2023-11-12T18:50:27.858Z,100015.77
2023-11-12T18:52:58.287Z,100016.83
2023-11-12T18:55:26.790Z,100016.89
2023-11-12T18:57:59.471Z,100017.80
2023-11-12T19:00:28.488Z,100020.77
2023-11-12T19:03:00.668Z,100025.27
2023-11-12T19:05:30.014Z,100023.27
2023-11-12T19:07:58.710Z,100026.23
2023-11-12T19:10:31.227Z,100029.88
2023-11-12T19:12:59.513Z,100035.80
2023-11-12T19:15:31.210Z,100035.14
2023-11-12T19:17:59.463Z,100041.42
2023-11-12T19:20:34.060Z,100043.87
2023-11-12T19:23:02.205Z,100046.63
2023-11-12T19:25:31.139Z,100050.60
2023-11-12T19:28:01.248Z,100054.41
2023-11-12T19:30:31.201Z,100052.52
2023-11-12T19:33:03.232Z,100053.25
2023-11-12T19:35:32.144Z,100057.27
2023-11-12T19:38:03.495Z,100060.43
2023-11-12T19:40:34.408Z,100065.34
2023-11-12T19:43:03.749Z,100066.94
2023-11-12T19:45:32.086Z,100069.60
2023-11-12T19:48:00.326Z,100069.85
2023-11-12T19:50:28.536Z,100071.11
2023-11-12T19:52:57.982Z,100074.59
2023-11-12T19:55:28.962Z,100077.92
2023-11-12T19:57:57.209Z,100079.35
2023-11-12T20:00:25.365Z,100085.95
2023-11-12T20:02:54.119Z,100085.45
2023-11-12T20:05:25.257Z,100088.04
2023-11-12T20:08:01.252Z,100091.00
2023-11-12T20:10:29.560Z,100089.84
2023-11-12T20:13:00.035Z,100089.00
2023-11-12T20:15:28.820Z,100088.69
2023-11-12T20:17:58.831Z,100089.55
2023-11-12T20:20:27.647Z,100091.80
2023-11-12T20:22:58.652Z,100091.01
2023-11-12T20:25:26.947Z,100088.80
2023-11-12T20:27:55.074Z,100093.70
2023-11-12T20:30:29.464Z,100094.29
2023-11-12T20:32:58.185Z,100090.70
2023-11-12T20:35:28.690Z,100090.40
2023-11-12T20:38:00.332Z,100092.52
2023-11-12T20:40:28.980Z,100091.88
2023-11-12T20:42:57.611Z,100093.67
2023-11-12T20:45:27.874Z,100097.55
2023-11-12T20:47:59.631Z,100096.71
2023-11-12T20:50:28.888Z,100096.20
2023-11-12T20:52:57.005Z,100097.05
2023-11-12T20:55:25.957Z,100095.50
2023-11-12T20:57:54.740Z,100101.57
2023-11-12T21:00:23.035Z,100101.79
2023-11-12T21:02:52.950Z,100100.94
2023-11-12T21:05:22.238Z,100101.35
2023-11-12T21:07:51.227Z,100104.68
2023-11-12T21:10:22.834Z,100099.71
2023-11-12T21:12:51.932Z,100096.30
2023-11-12T21:15:21.031Z,100099.23
2023-11-12T21:17:50.265Z,100101.67
2023-11-12T21:20:18.910Z,100104.85
2023-11-12T21:22:47.975Z,100107.35
2023-11-12T21:25:21.449Z,100110.34
2023-11-12T21:27:50.953Z,100112.63
2023-11-12T21:30:27.258Z,100115.10
2023-11-12T21:32:59.039Z,100117.22
2023-11-12T21:35:28.172Z,100120.53
2023-11-12T21:37:58.427Z,100118.33
2023-11-12T21:40:27.183Z,100122.84
2023-11-12T21:42:55.582Z,100122.01
2023-11-12T21:45:28.600Z,100122.71
2023-11-12T21:47:57.797Z,100122.23
2023-11-12T21:50:27.173Z,100121.23
2023-11-12T21:52:58.504Z,100122.50
2023-11-12T21:55:32.158Z,100122.58
2023-11-12T21:58:02.043Z,100124.33
2023-11-12T22:00:30.633Z,100125.41
2023-11-12T22:03:00.023Z,100124.92
2023-11-12T22:05:29.395Z,100127.41
2023-11-12T22:07:57.865Z,100126.61
2023-11-12T22:10:26.603Z,100128.19
2023-11-12T22:12:56.747Z,100129.42
2023-11-12T22:15:25.229Z,100132.04
2023-11-12T22:17:53.584Z,100131.88
2023-11-12T22:20:22.532Z,100131.95
2023-11-12T22:22:50.896Z,100132.36
2023-11-12T22:25:20.184Z,100130.86
2023-11-12T22:27:49.918Z,100129.36
2023-11-12T22:30:20.092Z,100131.27
2023-11-12T22:32:48.967Z,100135.75
2023-11-12T22:35:18.060Z,100133.52
2023-11-12T22:37:46.537Z,100135.94
2023-11-12T22:40:15.193Z,100139.55
2023-11-12T22:42:44.296Z,100143.54
2023-11-12T22:45:14.186Z,100142.00
2023-11-12T22:47:43.427Z,100140.80
2023-11-12T22:50:18.592Z,100141.32
2023-11-12T22:52:47.052Z,100143.04
2023-11-12T22:55:15.301Z,100139.27
2023-11-12T22:57:45.077Z,100141.33
2023-11-12T23:02:59.070Z,100148.77
